Time;durP1;ratioP1;P1;durP2;ratioP2;P2;SDS_P1;SDS_P2;PMS_P1;PMS_P2;Temp;Humidity;BMP_temperature;BMP_pressure;BME280_temperature;BME280_humidity;BME280_pressure;Samples;Min_cycle;Max_cycle;Signal;HPM_P1;HPM_P2
2023/06/28 00:00:15;;;;;;;5.85;2.95;;;;;;;22.14;100.00;99929.97;4985154;28;20561;-69
2023/06/28 00:02:40;;;;;;;6.00;3.22;;;;;;;21.78;100.00;99874.13;4983797;28;20065;-69
2023/06/28 00:05:09;;;;;;;6.45;3.40;;;;;;;22.16;100.00;99932.56;4985465;28;20034;-70
2023/06/28 00:07:35;;;;;;;4.35;3.03;;;;;;;21.88;100.00;99887.81;4980533;28;20045;-69
2023/06/28 00:10:00;;;;;;;4.88;3.65;;;;;;;22.06;100.00;99952.75;4986699;28;20070;-69
2023/06/28 00:12:28;;;;;;;6.88;4.88;;;;;;;21.70;100.00;99877.22;4986694;28;20054;-69
2023/06/28 00:14:54;;;;;;;6.40;3.40;;;;;;;21.79;100.00;99885.66;4984284;28;20056;-69
2023/06/28 00:17:27;;;;;;;6.38;3.63;;;;;;;22.14;100.00;99958.53;4975747;28;20389;-69
2023/06/28 00:20:10;;;;;;;4.07;2.70;;;;;;;22.11;100.00;99958.69;4974165;28;20037;-69
2023/06/28 00:22:36;;;;;;;6.68;2.88;;;;;;;21.90;100.00;99937.56;4983941;28;20042;-69
2023/06/28 00:25:05;;;;;;;7.22;3.40;;;;;;;21.53;100.00;99869.25;4984623;28;20131;-69
2023/06/28 00:27:30;;;;;;;7.57;4.18;;;;;;;22.11;100.00;99948.88;4986112;28;20378;-69
2023/06/28 00:29:57;;;;;;;5.22;3.13;;;;;;;21.31;100.00;99829.47;4984727;28;20050;-69
2023/06/28 00:32:24;;;;;;;7.53;3.55;;;;;;;22.07;100.00;99966.00;4983083;28;20042;-69
2023/06/28 00:34:49;;;;;;;7.45;2.88;;;;;;;21.97;100.00;99924.72;4986300;28;20041;-68
2023/06/28 00:37:15;;;;;;;5.60;3.70;;;;;;;22.18;100.00;99956.56;4986770;28;20046;-69
2023/06/28 00:39:40;;;;;;;4.82;2.60;;;;;;;21.60;100.00;99875.13;4984397;28;20081;-69
2023/06/28 00:42:07;;;;;;;15.23;3.08;;;;;;;21.40;100.00;99855.72;4984864;28;20054;-68
2023/06/28 00:44:33;;;;;;;10.02;4.18;;;;;;;21.37;100.00;99861.16;4983624;28;20042;-68
2023/06/28 00:47:00;;;;;;;4.00;2.38;;;;;;;21.71;100.00;99927.00;4981989;28;20486;-69
2023/06/28 00:49:30;;;;;;;3.95;2.47;;;;;;;21.86;100.00;99948.47;4985986;28;20053;-69
2023/06/28 00:51:56;;;;;;;4.68;3.40;;;;;;;21.74;100.00;99933.13;4985749;28;20030;-69
2023/06/28 00:54:22;;;;;;;5.78;3.03;;;;;;;21.58;100.00;99909.06;4981026;28;20046;-69
2023/06/28 00:56:49;;;;;;;9.52;3.00;;;;;;;21.65;100.00;99942.50;4985775;28;20133;-69
2023/06/28 00:59:17;;;;;;;6.20;2.95;;;;;;;21.70;100.00;99953.78;4981198;28;20053;-69
2023/06/28 01:01:44;;;;;;;5.93;3.00;;;;;;;21.82;100.00;99950.47;4975991;28;20046;-68
2023/06/28 01:04:10;;;;;;;5.32;2.95;;;;;;;21.41;100.00;99872.59;4966343;28;20054;-68
2023/06/28 01:06:37;;;;;;;5.03;3.15;;;;;;;21.68;100.00;99937.84;4986291;28;20057;-68
2023/06/28 01:09:04;;;;;;;20.15;3.22;;;;;;;21.68;100.00;99940.53;4976832;28;20473;-69
2023/06/28 01:11:33;;;;;;;6.28;3.58;;;;;;;21.42;100.00;99938.34;4983681;28;20092;-69
2023/06/28 01:13:59;;;;;;;6.13;3.58;;;;;;;21.02;100.00;99871.88;4981314;28;20026;-68
2023/06/28 01:16:25;;;;;;;6.20;3.45;;;;;;;21.69;100.00;99949.41;4976846;28;20054;-69
2023/06/28 01:18:50;;;;;;;5.75;3.08;;;;;;;21.81;100.00;99956.75;4984136;28;20046;-68
2023/06/28 01:21:17;;;;;;;6.70;3.80;;;;;;;21.84;100.00;99956.56;4985718;28;20054;-68
2023/06/28 01:23:44;;;;;;;9.88;4.13;;;;;;;21.25;100.00;99853.81;4984223;28;20053;-68
2023/06/28 01:26:11;;;;;;;5.43;3.65;;;;;;;21.79;100.00;99939.06;4980801;28;20550;-68
2023/06/28 01:28:37;;;;;;;7.10;3.45;;;;;;;21.25;100.00;99853.81;4982583;28;20043;-68
2023/06/28 01:31:04;;;;;;;6.55;3.75;;;;;;;21.69;100.00;99952.06;4974110;28;20065;-68
2023/06/28 01:33:29;;;;;;;8.05;4.30;;;;;;;21.67;100.00;99956.63;4985672;28;20054;-68
2023/06/28 01:35:57;;;;;;;9.77;2.83;;;;;;;21.04;100.00;99858.47;4984537;28;20038;-68
2023/06/28 01:38:23;;;;;;;5.47;2.55;;;;;;;21.00;100.00;99878.25;4984366;28;20291;-68
2023/06/28 01:40:51;;;;;;;7.95;3.50;;;;;;;21.07;100.00;99891.22;4968246;28;20034;-68
2023/06/28 01:43:17;;;;;;;4.72;3.45;;;;;;;21.56;100.00;99962.53;4982629;28;20046;-68
2023/06/28 01:45:42;;;;;;;4.65;3.10;;;;;;;21.29;100.00;99943.47;4981094;28;20728;-69
2023/06/28 01:48:08;;;;;;;8.48;4.80;;;;;;;20.90;100.00;99893.00;4977654;28;20047;-68
2023/06/28 01:50:33;;;;;;;4.95;2.90;;;;;;;20.88;100.00;99879.75;4985631;28;20442;-69
2023/06/28 01:53:01;;;;;;;5.30;3.92;;;;;;;21.26;100.00;99971.19;4982808;28;20049;-69
2023/06/28 01:55:28;;;;;;;7.75;4.03;;;;;;;21.00;100.00;99923.59;4976720;28;20129;-69
2023/06/28 01:57:53;;;;;;;6.28;3.28;;;;;;;21.16;100.00;99979.72;4979896;28;20049;-69
2023/06/28 02:00:19;;;;;;;7.00;3.55;;;;;;;21.11;100.00;99981.75;4986027;28;20046;-69
2023/06/28 02:02:45;;;;;;;5.32;3.10;;;;;;;20.59;100.00;99905.22;4984997;28;20043;-69
2023/06/28 02:05:11;;;;;;;4.78;3.13;;;;;;;20.64;100.00;99909.38;4987567;28;20092;-69
2023/06/28 02:07:37;;;;;;;6.93;4.18;;;;;;;20.78;100.00;99900.69;4986716;28;20066;-69
2023/06/28 02:10:03;;;;;;;9.02;3.90;;;;;;;21.33;100.00;99982.41;4985922;28;20498;-69
2023/06/28 02:12:28;;;;;;;7.65;3.53;;;;;;;21.36;100.00;99994.72;4983786;28;20065;-69
2023/06/28 02:14:54;;;;;;;6.93;3.60;;;;;;;21.01;100.00;99931.53;4984982;28;20046;-69
2023/06/28 02:17:23;;;;;;;11.27;5.05;;;;;;;21.32;100.00;99986.00;4965508;28;20166;-69
2023/06/28 02:19:48;;;;;;;13.63;4.15;;;;;;;19.80;100.00;99754.50;4981559;28;20042;-69
2023/06/28 02:22:15;;;;;;;6.57;3.63;;;;;;;20.97;100.00;99929.09;4984875;28;20058;-68
2023/06/28 02:24:41;;;;;;;5.45;3.10;;;;;;;20.81;100.00;99903.22;4986485;28;20072;-69
2023/06/28 02:27:08;;;;;;;5.32;3.30;;;;;;;20.83;100.00;99900.47;4974103;28;20081;-69
2023/06/28 02:29:34;;;;;;;9.82;5.55;;;;;;;21.47;100.00;99995.94;4984362;28;20776;-69
2023/06/28 02:32:00;;;;;;;4.13;2.55;;;;;;;;;;4977083;28;20042;-69
2023/06/28 02:34:25;;;;;;;11.07;4.20;;;;;;;21.60;100.00;100004.16;4979636;28;20064;-69
2023/06/28 02:36:51;;;;;;;5.32;3.40;;;;;;;21.06;100.00;99905.47;4983603;28;20049;-69
2023/06/28 02:39:17;;;;;;;6.25;2.95;;;;;;;21.51;100.00;99991.28;4981668;28;20054;-68
2023/06/28 02:41:42;;;;;;;5.13;3.28;;;;;;;21.17;100.00;99920.94;4990436;28;20034;-68
2023/06/28 02:44:08;;;;;;;8.25;4.03;;;;;;;21.54;100.00;99984.91;4989770;28;20034;-69
2023/06/28 02:46:33;;;;;;;6.45;3.50;;;;;;;21.14;100.00;99909.56;4988220;28;20042;-69
2023/06/28 02:48:59;;;;;;;9.35;4.10;;;;;;;21.67;100.00;99997.53;4988436;28;20490;-68
2023/06/28 02:51:24;;;;;;;5.38;3.75;;;;;;;21.41;100.00;99979.38;4985194;28;20046;-67
2023/06/28 02:53:50;;;;;;;6.95;4.18;;;;;;;21.02;100.00;99903.03;4983736;28;20051;-68
2023/06/28 02:56:15;;;;;;;10.43;4.25;;;;;;;21.10;100.00;99916.88;4988566;28;20038;-68
2023/06/28 02:58:43;;;;;;;8.45;4.93;;;;;;;20.93;100.00;99943.53;4972232;28;20035;-68
2023/06/28 03:01:09;;;;;;;8.30;3.42;;;;;;;20.70;100.00;99915.34;4985802;28;20108;-68
2023/06/28 03:03:38;;;;;;;6.32;3.80;;;;;;;21.54;100.00;100023.19;4988268;28;20050;-69
2023/06/28 03:06:05;;;;;;;7.03;3.65;;;;;;;21.56;100.00;99996.38;4985824;28;20129;-68
2023/06/28 03:08:30;;;;;;;8.43;3.80;;;;;;;21.49;100.00;100001.16;4988717;28;20058;-68
2023/06/28 03:10:56;;;;;;;10.23;4.88;;;;;;;21.55;100.00;100021.38;4983728;28;20042;-67
2023/06/28 03:13:21;;;;;;;7.25;5.35;;;;;;;21.26;100.00;99963.16;4981679;28;20050;-69
2023/06/28 03:15:47;;;;;;;8.32;3.90;;;;;;;21.67;100.00;100023.38;4984789;28;20773;-68
2023/06/28 03:18:12;;;;;;;10.00;4.45;;;;;;;21.00;100.00;99931.59;4985815;28;20042;-68
2023/06/28 03:20:38;;;;;;;10.52;5.30;;;;;;;21.03;100.00;99926.13;4979133;28;20086;-68
2023/06/28 03:23:03;;;;;;;6.68;3.75;;;;;;;21.40;100.00;100023.88;4984409;28;20504;-69
2023/06/28 03:25:29;;;;;;;8.75;4.60;;;;;;;20.93;100.00;99940.84;4987210;28;20486;-68
2023/06/28 03:27:55;;;;;;;12.80;4.50;;;;;;;20.96;100.00;99933.56;4988298;28;20117;-68
2023/06/28 03:30:21;;;;;;;10.77;6.72;;;;;;;21.15;100.00;100018.88;4970417;28;20061;-68
2023/06/28 03:32:46;;;;;;;8.93;4.93;;;;;;;21.29;100.00;100028.88;4989177;28;20042;-68
2023/06/28 03:35:11;;;;;;;7.18;4.00;;;;;;;20.65;100.00;99939.59;4985243;28;20038;-68
2023/06/28 03:37:37;;;;;;;7.18;4.25;;;;;;;20.63;100.00;99957.47;4985537;28;20133;-68
2023/06/28 03:40:04;;;;;;;8.93;4.43;;;;;;;20.67;100.00;99945.69;4989337;28;20069;-69
2023/06/28 03:42:30;;;;;;;4.88;3.58;;;;;;;21.00;100.00;100043.63;4982710;28;20136;-68
2023/06/28 03:44:55;;;;;;;10.77;5.30;;;;;;;21.24;100.00;100041.59;4989175;28;20141;-67
2023/06/28 03:47:21;;;;;;;8.60;5.40;;;;;;;20.97;100.00;100006.44;4987285;28;20149;-69
2023/06/28 03:49:46;;;;;;;7.63;4.07;;;;;;;21.08;100.00;100026.31;4986383;28;20402;-68
2023/06/28 03:52:12;;;;;;;8.15;4.40;;;;;;;20.93;100.00;100023.53;4987107;28;20418;-69
2023/06/28 03:54:37;;;;;;;8.50;4.72;;;;;;;21.14;100.00;100034.97;4986090;28;20402;-69
2023/06/28 03:57:04;;;;;;;7.45;4.38;;;;;;;20.95;100.00;100033.19;4987654;28;20061;-68
2023/06/28 03:59:30;;;;;;;10.57;5.10;;;;;;;21.06;100.00;100040.69;4987889;28;20038;-68
2023/06/28 04:01:55;;;;;;;8.85;4.55;;;;;;;21.22;100.00;100040.78;4983200;28;20038;-69
2023/06/28 04:04:21;;;;;;;7.65;3.85;;;;;;;21.38;100.00;100041.75;4976325;28;20104;-68
2023/06/28 04:06:46;;;;;;;6.72;4.32;;;;;;;21.33;100.00;100042.91;4970595;28;20057;-68
2023/06/28 04:09:12;;;;;;;6.25;3.47;;;;;;;21.31;100.00;100045.66;4986881;28;20133;-68
2023/06/28 04:11:37;;;;;;;7.80;3.63;;;;;;;21.42;100.00;100040.69;4985530;28;20061;-68
2023/06/28 04:14:03;;;;;;;9.77;4.20;;;;;;;21.47;100.00;100046.66;4985800;28;20497;-68
2023/06/28 04:16:28;;;;;;;5.13;3.63;;;;;;;21.26;100.00;100059.25;4980420;28;20054;-68
2023/06/28 04:18:54;;;;;;;8.35;4.75;;;;;;;21.16;100.00;100067.78;4985729;28;20034;-68
2023/06/28 04:21:19;;;;;;;9.35;5.57;;;;;;;20.96;100.00;99986.06;4987932;28;20047;-68
2023/06/28 04:23:45;;;;;;;23.88;8.38;;;;;;;20.96;100.00;99996.75;4985507;28;20126;-68
2023/06/28 04:26:10;;;;;;;8.02;5.68;;;;;;;21.53;100.00;100063.28;4988232;28;20795;-68
2023/06/28 04:28:36;;;;;;;9.40;4.68;;;;;;;21.52;100.00;100057.09;4981100;28;20061;-68
2023/06/28 04:31:02;;;;;;;8.85;3.80;;;;;;;21.22;100.00;99980.28;4978567;28;20410;-68
2023/06/28 04:33:29;;;;;;;7.30;4.20;;;;;;;21.62;100.00;100070.84;4982520;28;20050;-69
2023/06/28 04:35:56;;;;;;;8.70;3.67;;;;;;;21.21;100.00;99975.88;4986441;28;20042;-69
2023/06/28 04:38:23;;;;;;;6.93;4.65;;;;;;;21.42;100.00;100010.44;4985365;28;20038;-69
2023/06/28 04:40:49;;;;;;;6.43;4.13;;;;;;;21.31;100.00;100029.66;4986963;28;20112;-69
2023/06/28 04:43:15;;;;;;;8.90;4.20;;;;;;;21.51;100.00;100025.97;4985304;28;20057;-69
2023/06/28 04:45:41;;;;;;;6.10;3.63;;;;;;;21.64;100.00;100058.28;4980146;28;20054;-69
2023/06/28 04:48:07;;;;;;;7.18;2.88;;;;;;;21.89;100.00;100084.56;4979231;28;20129;-68
2023/06/28 04:50:37;;;;;;;7.65;4.40;;;;;;;21.68;100.00;100089.19;4986121;28;20152;-68
2023/06/28 04:53:04;;;;;;;6.60;4.30;;;;;;;21.16;100.00;100084.63;4975278;28;20122;-69
2023/06/28 04:55:32;;;;;;;6.78;4.28;;;;;;;21.39;100.00;100070.16;4970222;28;20046;-69
2023/06/28 04:58:01;;;;;;;4.13;2.67;;;;;;;21.66;100.00;100075.94;4956981;28;20046;-68
2023/06/28 05:00:27;;;;;;;5.60;4.22;;;;;;;21.49;100.00;100097.28;4976470;28;20057;-68
2023/06/28 05:02:52;;;;;;;8.57;4.03;;;;;;;21.72;100.00;100088.09;4983282;28;20054;-69
2023/06/28 05:05:19;;;;;;;5.93;4.05;;;;;;;22.02;100.00;100096.34;4981894;28;20050;-68
2023/06/28 05:07:44;;;;;;;4.93;3.20;;;;;;;21.87;100.00;100025.88;4976817;28;20034;-68
2023/06/28 05:10:10;;;;;;;5.43;2.90;;;;;;;22.21;100.00;100079.34;4982742;28;20078;-68
2023/06/28 05:12:35;;;;;;;3.58;2.88;;;;;;;21.99;100.00;100088.50;4982245;28;20152;-69
2023/06/28 05:15:02;;;;;;;6.10;5.05;;;;;;;21.76;100.00;100036.25;4985335;28;20057;-69
2023/06/28 05:17:27;;;;;;;7.32;4.88;;;;;;;21.79;100.00;100035.22;4975810;28;20037;-68
2023/06/28 05:19:52;;;;;;;5.70;3.28;;;;;;;22.12;100.00;100032.56;4973229;28;20477;-68
2023/06/28 05:22:21;;;;;;;6.07;3.42;;;;;;;23.31;100.00;100131.25;4972320;28;20413;-68
2023/06/28 05:24:48;;;;;;;4.32;2.95;;;;;;;23.27;100.00;100119.88;4977583;28;20525;-68
2023/06/28 05:27:13;;;;;;;3.90;2.30;;;;;;;23.73;100.00;100101.09;4973296;28;20076;-68
2023/06/28 05:29:39;;;;;;;7.35;3.78;;;;;;;23.92;100.00;100118.78;4979646;28;20061;-69
2023/06/28 05:32:04;;;;;;;3.83;3.00;;;;;;;23.11;100.00;100081.56;4973307;28;20453;-69
2023/06/28 05:34:30;;;;;;;6.07;2.10;;;;;;;23.47;100.00;100027.66;4983842;28;20043;-68
2023/06/28 05:36:55;;;;;;;4.53;2.88;;;;;;;24.59;100.00;100122.69;4984417;28;20046;-68
2023/06/28 05:39:21;;;;;;;5.40;3.35;;;;;;;25.06;100.00;100121.47;4979947;28;20470;-68
2023/06/28 05:41:46;;;;;;;3.10;2.13;;;;;;;24.34;100.00;100092.97;4980186;28;20524;-68
2023/06/28 05:44:12;;;;;;;6.28;2.45;;;;;;;23.94;100.00;100042.69;4983865;28;20046;-67
2023/06/28 05:46:37;;;;;;;7.53;2.35;;;;;;;24.21;100.00;100106.28;4981285;28;20801;-68
2023/06/28 05:49:09;;;;;;;3.83;2.88;;;;;;;24.05;100.00;100103.69;4980746;28;20050;-67
2023/06/28 05:51:36;;;;;;;8.68;2.83;;;;;;;23.94;100.00;100021.25;4975024;28;21604;-68
2023/06/28 05:54:01;;;;;;;4.00;2.58;;;;;;;24.63;100.00;100126.91;4982680;28;20054;-68
2023/06/28 05:56:27;;;;;;;4.00;2.17;;;;;;;23.15;100.00;100069.69;4984387;28;20038;-68
2023/06/28 05:58:53;;;;;;;3.63;2.25;;;;;;;23.59;100.00;100109.94;4985672;28;20030;-67
2023/06/28 06:01:18;;;;;;;3.92;2.50;;;;;;;22.62;100.00;100049.50;4981927;28;20057;-68
2023/06/28 06:03:44;;;;;;;5.97;2.38;;;;;;;22.41;100.00;100065.78;4983172;28;20599;-68
2023/06/28 06:06:10;;;;;;;2.55;1.40;;;;;;;22.79;100.00;100131.50;4966655;28;20050;-68
2023/06/28 06:08:35;;;;;;;2.55;1.90;;;;;;;22.89;100.00;100053.28;4980436;28;20053;-68
2023/06/28 06:11:03;;;;;;;6.03;2.47;;;;;;;23.93;100.00;100121.38;4982141;28;20451;-67
2023/06/28 06:13:29;;;;;;;2.30;1.55;;;;;;;23.36;100.00;100044.34;4985418;28;20046;-67
2023/06/28 06:15:54;;;;;;;4.80;2.05;;;;;;;23.97;100.00;100105.94;4986495;28;20045;-68
2023/06/28 06:18:20;;;;;;;3.25;2.20;;;;;;;23.60;100.00;100079.53;4987912;28;20050;-68
2023/06/28 06:20:45;;;;;;;7.45;3.85;;;;;;;23.79;100.00;100140.09;4986650;28;20061;-68
2023/06/28 06:23:11;;;;;;;3.72;1.90;;;;;;;23.49;100.00;100140.06;4990065;28;20061;-69
2023/06/28 06:25:36;;;;;;;2.55;1.42;;;;;;;22.85;100.00;100057.09;4987770;28;20472;-68
2023/06/28 06:28:02;;;;;;;5.00;1.98;;;;;;;22.95;100.00;100049.41;4972115;28;20062;-65
2023/06/28 06:30:28;;;;;;;4.93;2.38;;;;;;;23.62;100.00;100143.72;4988310;28;20510;-68
2023/06/28 06:32:53;;;;;;;7.82;4.60;;;;;;;23.43;100.00;100052.03;4989729;28;20797;-66
2023/06/28 06:35:19;;;;;;;2.80;1.50;;;;;;;23.13;100.00;100074.25;4985512;28;20033;-66
2023/06/28 06:37:45;;;;;;;3.15;1.95;;;;;;;23.82;100.00;100168.53;4989283;28;20033;-66
2023/06/28 06:40:11;;;;;;;6.68;4.85;;;;;;;22.39;100.00;100168.41;4987400;28;20042;-67
2023/06/28 06:42:38;;;;;;;10.18;5.47;;;;;;;23.45;100.00;100160.78;4989932;28;20042;-67
2023/06/28 06:45:05;;;;;;;8.48;4.05;;;;;;;22.99;100.00;100173.22;4990155;28;20073;-66
2023/06/28 06:47:30;;;;;;;8.25;4.97;;;;;;;22.36;100.00;100118.66;4989826;28;20058;-66
2023/06/28 06:49:56;;;;;;;9.57;6.40;;;;;;;22.95;100.00;100167.16;4989926;28;20057;-67
2023/06/28 06:52:22;;;;;;;12.63;6.47;;;;;;;23.46;100.00;100137.53;4968064;28;20464;-66
2023/06/28 06:54:47;;;;;;;11.38;6.05;;;;;;;23.10;100.00;100091.38;4988555;28;20042;-67
2023/06/28 06:57:15;;;;;;;4.25;2.83;;;;;;;23.16;100.00;100174.00;4985221;28;20113;-65
2023/06/28 06:59:40;;;;;;;4.90;4.10;;;;;;;22.30;100.00;100073.53;4988050;28;20060;-65
2023/06/28 07:02:06;;;;;;;7.32;2.45;;;;;;;22.04;100.00;100173.75;4988584;28;20121;-65
2023/06/28 07:04:32;;;;;;;4.95;2.60;;;;;;;22.11;100.00;100085.16;4987386;28;20380;-64
2023/06/28 07:06:57;;;;;;;4.72;3.35;;;;;;;22.79;100.00;100148.41;4989836;28;20146;-64
2023/06/28 07:09:24;;;;;;;4.25;2.22;;;;;;;22.96;100.00;100164.38;4989660;28;20066;-65
2023/06/28 07:11:50;;;;;;;4.95;3.28;;;;;;;22.74;100.00;100089.78;4976964;28;20049;-65
2023/06/28 07:14:15;;;;;;;6.57;3.42;;;;;;;22.31;100.00;100139.38;4989455;28;20030;-65
2023/06/28 07:16:45;;;;;;;6.18;4.72;;;;;;;22.42;100.00;100107.59;4988409;28;20034;-65
2023/06/28 07:19:13;;;;;;;9.20;6.30;;;;;;;23.22;100.00;100186.19;4984662;28;20092;-65
2023/06/28 07:21:39;;;;;;;3.25;2.13;;;;;;;22.71;100.00;100180.03;4986935;28;20077;-65
2023/06/28 07:24:05;;;;;;;4.45;2.85;;;;;;;22.21;100.00;100213.84;4984871;28;20508;-65
2023/06/28 07:26:30;;;;;;;10.23;4.57;;;;;;;22.99;100.00;100144.63;4978386;28;20065;-65
2023/06/28 07:28:57;;;;;;;20.02;11.70;;;;;;;23.38;100.00;100204.94;4967123;28;20475;-65
2023/06/28 07:31:22;;;;;;;12.10;9.63;;;;;;;23.53;100.00;100189.78;4988935;28;20055;-65
2023/06/28 07:33:47;;;;;;;14.45;7.07;;;;;;;24.03;100.00;100202.09;4983294;28;20038;-64
2023/06/28 07:36:13;;;;;;;17.02;10.90;;;;;;;23.70;100.00;100202.22;4985969;28;20514;-64
2023/06/28 07:38:38;;;;;;;18.33;8.82;;;;;;;23.55;100.00;100153.06;4986689;28;20043;-64
2023/06/28 07:41:04;;;;;;;11.02;6.78;;;;;;;23.04;100.00;100139.03;4987017;28;20424;-65
2023/06/28 07:43:29;;;;;;;3.92;2.05;;;;;;;22.61;100.00;100141.38;4988231;28;20050;-64
2023/06/28 07:45:59;;;;;;;12.30;7.82;;;;;;;22.90;100.00;100118.38;4988866;28;20041;-65
2023/06/28 07:48:25;;;;;;;5.55;2.75;;;;;;;23.02;100.00;100203.38;4985035;28;20451;-65
2023/06/28 07:50:50;;;;;;;7.38;4.97;;;;;;;23.24;100.00;100168.22;4988651;28;20038;-64
2023/06/28 07:53:16;;;;;;;8.45;5.53;;;;;;;23.77;100.00;100211.66;4986453;28;20478;-64
2023/06/28 07:55:41;;;;;;;4.70;2.60;;;;;;;23.29;100.00;100146.53;4986528;28;20528;-64
2023/06/28 07:58:07;;;;;;;17.23;3.25;;;;;;;23.59;100.00;100213.56;4987448;28;20195;-64
2023/06/28 08:00:32;;;;;;;6.28;4.07;;;;;;;23.22;100.00;100147.84;4987629;28;20129;-64
2023/06/28 08:02:58;;;;;;;6.45;3.22;;;;;;;23.90;100.00;100201.94;4985550;28;20426;-65
2023/06/28 08:05:24;;;;;;;3.95;2.83;;;;;;;23.43;100.00;100125.19;4980929;28;20148;-64
2023/06/28 08:07:52;;;;;;;6.32;3.70;;;;;;;23.65;100.00;100154.28;4983517;28;20097;-64
2023/06/28 08:10:18;;;;;;;5.28;3.38;;;;;;;23.54;100.00;100105.81;4984588;28;20046;-64
2023/06/28 08:12:43;;;;;;;7.68;3.72;;;;;;;23.55;100.00;100215.56;4981748;28;20046;-65
2023/06/28 08:15:09;;;;;;;4.50;2.88;;;;;;;23.54;100.00;100160.25;4979886;28;20109;-66
2023/06/28 08:17:35;;;;;;;6.63;3.40;;;;;;;23.60;100.00;100205.44;4984423;28;20053;-65
2023/06/28 08:20:00;;;;;;;4.55;2.67;;;;;;;23.49;100.00;100231.13;4975404;28;20061;-68
2023/06/28 08:22:26;;;;;;;7.63;2.25;;;;;;;23.57;100.00;100221.66;4986115;28;20081;-67
2023/06/28 08:24:51;;;;;;;4.68;3.28;;;;;;;22.69;100.00;100193.53;4986792;28;20050;-66
2023/06/28 08:27:16;;;;;;;5.50;1.98;;;;;;;21.41;100.00;100076.31;4980998;28;20413;-68
2023/06/28 08:29:42;;;;;;;5.45;3.28;;;;;;;23.24;100.00;100178.94;4983580;28;20053;-68
2023/06/28 08:32:09;;;;;;;6.13;2.25;;;;;;;22.06;100.00;100121.97;4984315;28;20034;-68
2023/06/28 08:34:34;;;;;;;4.70;2.47;;;;;;;23.08;100.00;100188.75;4984235;28;20062;-62
2023/06/28 08:37:00;;;;;;;3.00;2.03;;;;;;;22.71;100.00;100212.13;4983088;28;20096;-63
2023/06/28 08:39:25;;;;;;;3.28;2.28;;;;;;;21.33;100.00;100227.06;4979943;28;20081;-63
2023/06/28 08:41:54;;;;;;;5.80;1.75;;;;;;;21.65;100.00;100236.25;4962526;28;20046;-62
2023/06/28 08:44:22;;;;;;;2.85;2.05;;;;;;;21.17;100.00;100158.44;4984024;28;20081;-63
2023/06/28 08:46:49;;;;;;;5.07;2.40;;;;;;;22.70;100.00;100237.19;4985512;28;20042;-64
2023/06/28 08:49:16;;;;;;;3.47;1.88;;;;;;;20.94;100.00;100169.34;4983990;28;20068;-63
2023/06/28 08:51:42;;;;;;;4.25;2.78;;;;;;;22.21;100.00;100229.03;4984718;28;20085;-64
2023/06/28 08:54:09;;;;;;;4.28;2.83;;;;;;;22.37;100.00;100226.44;4978349;28;20046;-64
2023/06/28 08:56:35;;;;;;;5.50;3.42;;;;;;;22.42;100.00;100240.44;4973434;28;20129;-65
2023/06/28 08:59:02;;;;;;;7.78;4.45;;;;;;;22.92;100.00;100235.09;4968850;28;20058;-63
2023/06/28 09:01:28;;;;;;;2.88;2.00;;;;;;;21.36;100.00;100181.56;4982749;28;20038;-63
2023/06/28 09:03:54;;;;;;;5.03;2.20;;;;;;;20.65;100.00;100246.22;4985304;28;20406;-69
2023/06/28 09:06:21;;;;;;;2.50;0.98;;;;;;;20.01;100.00;100184.06;4965961;28;20061;-68
2023/06/28 09:08:48;;;;;;;2.88;1.40;;;;;;;19.81;100.00;100170.75;4984393;28;20042;-69
2023/06/28 09:11:16;;;;;;;3.30;1.58;;;;;;;20.17;100.00;100256.22;4979500;28;20121;-68
2023/06/28 09:13:41;;;;;;;1.80;1.13;;;;;;;20.13;100.00;100259.06;4982588;28;20090;-69
2023/06/28 09:16:10;;;;;;;4.68;2.45;;;;;;;19.95;100.00;100247.41;4985779;28;20077;-68
2023/06/28 09:18:36;;;;;;;4.60;2.13;;;;;;;19.67;100.00;100187.25;4977615;28;20042;-66
2023/06/28 09:21:02;;;;;;;3.05;1.67;;;;;;;20.13;100.00;100249.25;4985441;28;20050;-69
2023/06/28 09:23:31;;;;;;;2.63;1.38;;;;;;;19.75;100.00;100256.19;4981144;28;20035;-68
2023/06/28 09:25:57;;;;;;;4.07;2.05;;;;;;;19.81;100.00;100246.16;4978191;28;20110;-68
2023/06/28 09:28:24;;;;;;;3.47;1.65;;;;;;;20.07;100.00;100252.22;4982984;28;20047;-69
2023/06/28 09:30:54;;;;;;;11.25;1.63;;;;;;;19.29;100.00;100160.41;4980994;28;20108;-69
2023/06/28 09:33:19;;;;;;;3.38;2.15;;;;;;;19.65;100.00;100225.53;4978653;28;20133;-68
2023/06/28 09:35:45;;;;;;;5.07;1.80;;;;;;;19.89;100.00;100255.63;4980311;28;20399;-68
2023/06/28 09:38:11;;;;;;;2.80;1.40;;;;;;;19.26;100.00;100160.50;4984524;28;20030;-69
2023/06/28 09:40:36;;;;;;;3.10;1.67;;;;;;;19.66;100.00;100257.38;4982757;28;20125;-69
2023/06/28 09:43:02;;;;;;;2.83;1.50;;;;;;;19.92;100.00;100179.13;4977412;28;20781;-68
2023/06/28 09:45:30;;;;;;;5.43;3.33;;;;;;;20.78;100.00;100236.69;4967499;28;20113;-69
2023/06/28 09:47:58;;;;;;;3.78;1.77;;;;;;;20.44;100.00;100163.53;4984048;28;20850;-68
2023/06/28 09:50:45;;;;;;;3.85;2.28;;;;;;;20.17;100.00;100156.78;4984694;28;20682;-69
2023/06/28 09:53:13;;;;;;;3.78;2.03;;;;;;;20.24;100.00;100156.41;4983606;28;20026;-68
2023/06/28 09:55:43;;;;;;;3.42;2.50;;;;;;;21.17;100.00;100235.81;4984268;28;20115;-68
2023/06/28 09:58:11;;;;;;;4.82;2.28;;;;;;;20.69;100.00;100217.59;4984013;28;20462;-70
2023/06/28 10:00:38;;;;;;;3.42;2.00;;;;;;;21.26;100.00;100226.53;4983031;28;20675;-70
2023/06/28 10:03:12;;;;;;;3.08;1.88;;;;;;;20.47;100.00;100237.19;4985437;28;20540;-70
2023/06/28 10:05:40;;;;;;;2.92;1.33;;;;;;;19.75;100.00;100153.22;4980832;28;20696;-68
2023/06/28 10:08:11;;;;;;;3.60;2.05;;;;;;;20.66;100.00;100226.59;4984031;28;20382;-68
2023/06/28 10:10:38;;;;;;;2.70;1.25;;;;;;;20.86;100.00;100234.56;4980975;28;20053;-69
2023/06/28 10:13:08;;;;;;;5.10;1.83;;;;;;;20.61;100.00;100215.28;4968010;28;20061;-69
2023/06/28 10:15:41;;;;;;;2.67;1.25;;;;;;;20.87;100.00;100244.28;4984414;28;20508;-69
2023/06/28 10:18:07;;;;;;;2.63;1.63;;;;;;;20.63;100.00;100176.09;4981630;28;20089;-69
2023/06/28 10:20:33;;;;;;;2.53;1.70;;;;;;;20.46;100.00;100147.47;4976950;28;20522;-69
2023/06/28 10:22:59;;;;;;;3.42;2.38;;;;;;;20.18;100.00;100170.03;4984388;28;20034;-69
2023/06/28 10:25:27;;;;;;;8.98;2.05;;;;;;;19.85;100.00;100155.50;4982449;28;20058;-69
2023/06/28 10:27:53;;;;;;;3.33;1.88;;;;;;;19.62;100.00;100146.66;4983478;28;20125;-68
2023/06/28 10:30:21;;;;;;;3.92;2.25;;;;;;;20.16;100.00;100254.50;4984344;28;20085;-68
2023/06/28 10:32:48;;;;;;;6.80;4.50;;;;;;;20.53;100.00;100250.22;4983685;28;20066;-68
2023/06/28 10:35:15;;;;;;;3.28;1.70;;;;;;;19.91;100.00;100264.44;4983824;28;20423;-70
2023/06/28 10:37:40;;;;;;;4.05;2.42;;;;;;;19.30;100.00;100178.09;4983313;28;20220;-69
2023/06/28 10:40:09;;;;;;;5.03;2.92;;;;;;;19.55;100.00;100185.06;4983323;28;20145;-69
2023/06/28 10:42:39;;;;;;;2.85;1.42;;;;;;;19.38;100.00;100213.22;4968649;28;20049;-69
2023/06/28 10:45:05;;;;;;;4.07;1.63;;;;;;;19.57;100.00;100292.34;4983406;28;20054;-74
2023/06/28 10:47:34;;;;;;;2.92;1.80;;;;;;;19.23;100.00;100287.47;4982885;28;20054;-73
2023/06/28 10:50:09;;;;;;;3.00;1.80;;;;;;;19.45;100.00;100296.34;4981247;28;20034;-76
2023/06/28 10:52:42;;;;;;;3.95;1.55;;;;;;;18.82;100.00;100194.16;4958010;28;20455;-76
2023/06/28 10:55:11;;;;;;;3.60;1.50;;;;;;;19.05;100.00;100174.66;4979687;28;20533;-75
2023/06/28 10:57:38;;;;;;;3.53;1.88;;;;;;;19.54;100.00;100276.50;4980217;28;20062;-76
2023/06/28 11:00:25;;;;;;;2.90;1.70;;;;;;;19.16;100.00;100242.47;4984995;28;20460;-74
2023/06/28 11:02:59;;;;;;;4.32;2.63;;;;;;;19.26;100.00;100247.44;4984465;28;20084;-76
2023/06/28 11:05:54;;;;;;;2.63;1.52;;;;;;;19.35;100.00;100274.56;4982497;28;20030;-76
2023/06/28 11:08:21;;;;;;;5.93;1.85;;;;;;;18.91;100.00;100269.13;4979274;28;20034;-75
2023/06/28 11:10:53;;;;;;;3.42;1.67;;;;;;;18.70;100.00;100232.66;4969322;28;20375;-76
2023/06/28 11:13:34;;;;;;;2.35;1.42;;;;;;;18.95;100.00;100292.03;4977954;28;20061;-76
2023/06/28 11:16:11;;;;;;;4.43;1.77;;;;;;;18.41;100.00;100196.53;4984186;28;20042;-76